Time;durP1;ratioP1;P1;durP2;ratioP2;P2;SDS_P1;SDS_P2;PMS_P1;PMS_P2;Temp;Humidity;BMP_temperature;BMP_pressure;BME280_temperature;BME280_humidity;BME280_pressure;Samples;Min_cycle;Max_cycle;Signal;HPM_P1;HPM_P2
2022/01/06 00:00:12;;;;;;;25.13;4.95;;;;;;;;;;5053111;28;20063;-73
2022/01/06 00:02:40;;;;;;;23.15;4.38;;;;;;;;;;5054068;28;20035;-73
2022/01/06 00:05:08;;;;;;;22.00;4.65;;;;;;;;;;5054029;28;20485;-73
2022/01/06 00:07:35;;;;;;;21.02;4.47;;;;;;;;;;5054370;28;20088;-71
2022/01/06 00:10:05;;;;;;;19.25;3.80;;;;;;;;;;5054139;28;20017;-72
2022/01/06 00:12:41;;;;;;;21.07;4.63;;;;;;;;;;5053762;28;20021;-72
2022/01/06 00:15:25;;;;;;;21.83;4.55;;;;;;;;;;5053948;28;20017;-72
2022/01/06 00:23:26;;;;;;;24.60;5.18;;;;;;;;;;5054192;28;20036;-72
2022/01/06 00:25:53;;;;;;;22.27;4.25;;;;;;;;;;5053770;28;20363;-72
2022/01/06 00:28:21;;;;;;;27.85;3.80;;;;;;;;;;5053664;28;20025;-73
2022/01/06 00:30:48;;;;;;;22.48;4.40;;;;;;;;;;5053545;28;20453;-73
2022/01/06 00:33:15;;;;;;;24.40;5.13;;;;;;;;;;5053630;28;20024;-72
2022/01/06 00:35:42;;;;;;;19.55;4.57;;;;;;;;;;5052410;28;20554;-72
2022/01/06 00:38:09;;;;;;;21.33;4.45;;;;;;;;;;5052397;28;20053;-72
2022/01/06 00:40:37;;;;;;;23.50;4.80;;;;;;;;;;5053560;28;20389;-73
2022/01/06 00:43:05;;;;;;;21.70;4.38;;;;;;;;;;5053631;28;20055;-73
2022/01/06 00:45:33;;;;;;;23.30;4.18;;;;;;;;;;5053402;28;20021;-73
2022/01/06 00:48:00;;;;;;;20.35;4.30;;;;;;;;;;5053373;28;20021;-73
2022/01/06 00:50:28;;;;;;;20.58;4.45;;;;;;;;;;5053367;28;20021;-73
2022/01/06 00:52:55;;;;;;;20.75;4.57;;;;;;;;;;5053461;28;20020;-73
2022/01/06 00:55:22;;;;;;;21.80;5.30;;;;;;;;;;5053293;28;20397;-73
2022/01/06 00:57:49;;;;;;;19.38;4.63;;;;;;;;;;5052130;28;20078;-73
2022/01/06 01:00:17;;;;;;;22.65;4.35;;;;;;;;;;5053181;28;20021;-74
2022/01/06 01:02:44;;;;;;;21.25;4.43;;;;;;;;;;5053189;28;20032;-73
2022/01/06 01:05:11;;;;;;;26.83;4.50;;;;;;;;;;5053023;28;20025;-73
2022/01/06 01:07:38;;;;;;;24.38;4.43;;;;;;;;;;5053274;28;20025;-74
2022/01/06 01:10:05;;;;;;;24.02;4.95;;;;;;;;;;5051941;28;20044;-73
2022/01/06 01:12:33;;;;;;;24.90;4.93;;;;;;;;;;5051872;28;20078;-74
2022/01/06 01:15:06;;;;;;;21.17;3.92;;;;;;;;;;5051887;28;20025;-74
2022/01/06 01:17:34;;;;;;;18.52;3.83;;;;;;;;;;5053006;28;20067;-73
2022/01/06 01:20:02;;;;;;;23.02;4.85;;;;;;;;;;5053157;28;20473;-73
2022/01/06 01:22:29;;;;;;;18.85;4.72;;;;;;;;;;5051742;28;20025;-73
2022/01/06 01:24:56;;;;;;;20.83;4.18;;;;;;;;;;5052296;28;20048;-74
2022/01/06 01:27:23;;;;;;;24.98;4.47;;;;;;;;;;5052938;28;20025;-74
2022/01/06 01:30:01;;;;;;;18.40;3.95;;;;;;;;;;5051801;28;20031;-74
2022/01/06 01:32:33;;;;;;;20.60;4.43;;;;;;;;;;5052875;28;20395;-74
2022/01/06 01:35:02;;;;;;;16.42;3.75;;;;;;;;;;5052949;28;20230;-74
2022/01/06 01:37:30;;;;;;;16.33;4.05;;;;;;;;;;5051532;28;20036;-73
2022/01/06 01:39:57;;;;;;;18.73;3.72;;;;;;;;;;5052860;28;20092;-74
2022/01/06 01:42:24;;;;;;;19.02;3.92;;;;;;;;;;5052736;28;20017;-74
2022/01/06 01:44:52;;;;;;;19.60;3.45;;;;;;;;;;5051562;28;20097;-74
2022/01/06 01:47:32;;;;;;;21.90;4.03;;;;;;;;;;5052697;28;20041;-74
2022/01/06 01:50:18;;;;;;;21.73;3.63;;;;;;;;;;5051427;28;20031;-73
2022/01/06 01:52:47;;;;;;;23.15;4.20;;;;;;;;;;5051417;28;20029;-74
2022/01/06 01:55:18;;;;;;;25.10;4.57;;;;;;;;;;5052755;28;20393;-73
2022/01/06 01:57:46;;;;;;;24.48;4.35;;;;;;;;;;5051316;28;20022;-74
2022/01/06 02:00:14;;;;;;;18.65;3.95;;;;;;;;;;5052681;28;20406;-74
2022/01/06 02:02:41;;;;;;;23.88;4.53;;;;;;;;;;5052409;28;20049;-73
2022/01/06 02:05:09;;;;;;;22.73;4.38;;;;;;;;;;5052602;28;20033;-73
2022/01/06 02:07:39;;;;;;;13.75;3.63;;;;;;;;;;5051192;28;20535;-73
2022/01/06 02:10:06;;;;;;;18.77;3.83;;;;;;;;;;5051164;28;20048;-73
2022/01/06 02:12:37;;;;;;;25.70;4.20;;;;;;;;;;5051133;28;20025;-74
2022/01/06 02:15:06;;;;;;;22.60;4.07;;;;;;;;;;5052503;28;20398;-73
2022/01/06 02:17:33;;;;;;;21.85;3.90;;;;;;;;;;5052573;28;20017;-73
2022/01/06 02:20:01;;;;;;;18.38;4.00;;;;;;;;;;5051155;28;20197;-74
2022/01/06 02:22:28;;;;;;;19.65;3.83;;;;;;;;;;5051084;28;20017;-74
2022/01/06 02:24:55;;;;;;;19.30;4.50;;;;;;;;;;5052473;28;20087;-74
2022/01/06 02:27:24;;;;;;;19.35;4.20;;;;;;;;;;5052423;28;20426;-74
2022/01/06 02:29:52;;;;;;;20.95;4.25;;;;;;;;;;5052399;28;20017;-74
2022/01/06 02:32:22;;;;;;;18.90;4.32;;;;;;;;;;5051522;28;20423;-74
2022/01/06 02:34:49;;;;;;;18.87;5.20;;;;;;;;;;5052408;28;20025;-72
2022/01/06 02:37:16;;;;;;;17.55;4.10;;;;;;;;;;5056227;28;20250;-73
2022/01/06 02:39:44;;;;;;;22.83;4.18;;;;;;;;;;5055677;28;20048;-72
2022/01/06 02:42:11;;;;;;;17.33;3.75;;;;;;;;;;5055808;28;20029;-74
2022/01/06 02:44:39;;;;;;;23.92;5.20;;;;;;;;;;5054438;28;20052;-73
2022/01/06 02:47:07;;;;;;;17.05;3.65;;;;;;;;;;5054317;28;20371;-74
2022/01/06 02:49:35;;;;;;;21.08;4.03;;;;;;;;;;5054315;28;20397;-74
2022/01/06 02:52:02;;;;;;;20.83;4.15;;;;;;;;;;5055639;28;20021;-73
2022/01/06 02:54:29;;;;;;;20.95;3.92;;;;;;;;;;5055686;28;20040;-74
2022/01/06 02:56:56;;;;;;;18.13;4.10;;;;;;;;;;5054424;28;20102;-74
2022/01/06 02:59:23;;;;;;;21.92;4.70;;;;;;;;;;5055541;28;20025;-74
2022/01/06 03:01:51;;;;;;;19.30;4.13;;;;;;;;;;5055614;28;20122;-74
2022/01/06 03:04:20;;;;;;;20.23;4.28;;;;;;;;;;5055156;28;20037;-73
2022/01/06 03:06:47;;;;;;;20.48;3.97;;;;;;;;;;5054026;28;20060;-74
2022/01/06 03:09:14;;;;;;;24.08;4.63;;;;;;;;;;5055329;28;20059;-74
2022/01/06 03:11:44;;;;;;;19.45;4.15;;;;;;;;;;5054122;28;20017;-75
2022/01/06 03:14:11;;;;;;;20.85;3.80;;;;;;;;;;5055200;28;20125;-73
2022/01/06 03:16:38;;;;;;;19.80;4.00;;;;;;;;;;5053988;28;20032;-74
2022/01/06 03:19:05;;;;;;;23.00;4.53;;;;;;;;;;5053831;28;20448;-73
2022/01/06 03:21:32;;;;;;;22.10;4.45;;;;;;;;;;5053998;28;20485;-74
2022/01/06 03:23:59;;;;;;;20.25;4.28;;;;;;;;;;5055057;28;20083;-73
2022/01/06 03:26:27;;;;;;;26.63;4.28;;;;;;;;;;5055113;28;20060;-74
2022/01/06 03:28:54;;;;;;;22.65;4.50;;;;;;;;;;5053728;28;20017;-74
2022/01/06 03:31:21;;;;;;;21.48;4.22;;;;;;;;;;5054954;28;20055;-74
2022/01/06 03:33:48;;;;;;;20.73;4.13;;;;;;;;;;5055007;28;20017;-73
2022/01/06 03:36:15;;;;;;;21.95;3.83;;;;;;;;;;5054880;28;20025;-73
2022/01/06 03:38:42;;;;;;;21.92;4.28;;;;;;;;;;5054831;28;20496;-74
2022/01/06 03:41:10;;;;;;;19.45;3.78;;;;;;;;;;5054782;28;20025;-73
2022/01/06 03:43:37;;;;;;;23.80;4.63;;;;;;;;;;5054719;28;20029;-73
2022/01/06 03:46:04;;;;;;;20.50;3.80;;;;;;;;;;5053361;28;20057;-74
2022/01/06 03:48:31;;;;;;;25.52;4.82;;;;;;;;;;5053975;28;20508;-74
2022/01/06 03:50:58;;;;;;;25.25;4.40;;;;;;;;;;5054493;28;20023;-75
2022/01/06 03:53:25;;;;;;;18.23;3.53;;;;;;;;;;5053298;28;20040;-74
2022/01/06 03:55:52;;;;;;;20.23;4.03;;;;;;;;;;5053213;28;20025;-74
2022/01/06 03:58:20;;;;;;;21.65;3.38;;;;;;;;;;5054544;28;20029;-73
2022/01/06 04:00:47;;;;;;;25.92;5.00;;;;;;;;;;5054257;28;20060;-74
2022/01/06 04:03:14;;;;;;;19.73;5.00;;;;;;;;;;5052784;28;20386;-73
2022/01/06 04:05:41;;;;;;;24.00;4.38;;;;;;;;;;5052951;28;20067;-74
2022/01/06 04:08:08;;;;;;;20.70;4.07;;;;;;;;;;5054218;28;20052;-74
2022/01/06 04:10:35;;;;;;;21.65;4.15;;;;;;;;;;5052816;28;20390;-74
2022/01/06 04:13:02;;;;;;;21.83;4.45;;;;;;;;;;5052857;28;20032;-74
2022/01/06 04:15:30;;;;;;;25.95;4.70;;;;;;;;;;5054036;28;20021;-74
2022/01/06 04:17:57;;;;;;;20.00;3.80;;;;;;;;;;5054086;28;20020;-74
2022/01/06 04:20:24;;;;;;;20.65;3.53;;;;;;;;;;5053853;28;20133;-74
2022/01/06 04:22:51;;;;;;;20.67;4.22;;;;;;;;;;5052737;28;20082;-74
2022/01/06 04:25:18;;;;;;;16.50;4.05;;;;;;;;;;5052393;28;20025;-74
2022/01/06 04:27:45;;;;;;;25.30;4.07;;;;;;;;;;5053790;28;20420;-74
2022/01/06 04:30:13;;;;;;;18.65;4.20;;;;;;;;;;5053819;28;20021;-74
2022/01/06 04:32:40;;;;;;;22.10;4.53;;;;;;;;;;5052383;28;20024;-74
2022/01/06 04:35:08;;;;;;;24.38;3.55;;;;;;;;;;5053829;28;20017;-75
2022/01/06 04:37:35;;;;;;;20.35;3.70;;;;;;;;;;5052203;28;20017;-74
2022/01/06 04:40:02;;;;;;;24.90;4.40;;;;;;;;;;5052371;28;20021;-75
2022/01/06 04:42:29;;;;;;;17.77;4.28;;;;;;;;;;5053461;28;20028;-75
2022/01/06 04:44:56;;;;;;;19.33;4.18;;;;;;;;;;5052327;28;20091;-75
2022/01/06 04:47:24;;;;;;;17.83;4.22;;;;;;;;;;5053369;28;20100;-74
2022/01/06 04:49:51;;;;;;;22.58;4.55;;;;;;;;;;5053455;28;20017;-75
2022/01/06 04:52:18;;;;;;;19.20;4.55;;;;;;;;;;5053236;28;20021;-74
2022/01/06 04:54:45;;;;;;;20.20;4.20;;;;;;;;;;5053346;28;20454;-74
2022/01/06 04:57:13;;;;;;;20.77;4.50;;;;;;;;;;5052065;28;20444;-74
2022/01/06 04:59:40;;;;;;;20.92;4.70;;;;;;;;;;5052279;28;20041;-74
2022/01/06 05:02:07;;;;;;;20.80;4.55;;;;;;;;;;5053188;28;20044;-73
2022/01/06 05:04:34;;;;;;;19.42;4.50;;;;;;;;;;5051667;28;20387;-74
2022/01/06 05:07:01;;;;;;;22.80;4.35;;;;;;;;;;5051692;28;20025;-75
2022/01/06 05:09:28;;;;;;;20.60;4.32;;;;;;;;;;5051665;28;20117;-74
2022/01/06 05:11:56;;;;;;;19.30;3.80;;;;;;;;;;5052966;28;20097;-75
2022/01/06 05:14:23;;;;;;;16.90;3.92;;;;;;;;;;5053231;28;20024;-75
2022/01/06 05:16:50;;;;;;;21.98;4.88;;;;;;;;;;5053053;28;20123;-75
2022/01/06 05:19:17;;;;;;;29.27;5.05;;;;;;;;;;5051707;28;20035;-75
2022/01/06 05:21:44;;;;;;;20.67;4.75;;;;;;;;;;5052917;28;20025;-75
2022/01/06 05:24:17;;;;;;;20.20;4.55;;;;;;;;;;5053302;28;20068;-75
2022/01/06 05:26:44;;;;;;;22.75;5.13;;;;;;;;;;5053029;28;20053;-74
2022/01/06 05:29:12;;;;;;;22.13;4.57;;;;;;;;;;5052919;28;20386;-75
2022/01/06 05:31:40;;;;;;;19.90;4.15;;;;;;;;;;5051564;28;20061;-75
2022/01/06 05:34:07;;;;;;;20.60;4.13;;;;;;;;;;5052815;28;20021;-75
2022/01/06 05:36:34;;;;;;;20.02;4.22;;;;;;;;;;5052971;28;20048;-75
2022/01/06 05:39:02;;;;;;;21.85;4.38;;;;;;;;;;5052729;28;20027;-75
2022/01/06 05:41:29;;;;;;;18.02;3.70;;;;;;;;;;5052874;28;20112;-76
2022/01/06 05:43:56;;;;;;;20.80;4.40;;;;;;;;;;5052752;28;20028;-75
2022/01/06 05:46:23;;;;;;;23.40;4.35;;;;;;;;;;5052856;28;20060;-75
2022/01/06 05:48:50;;;;;;;25.75;4.32;;;;;;;;;;5052769;28;20025;-75
2022/01/06 05:51:17;;;;;;;26.92;5.07;;;;;;;;;;5051503;28;20031;-75
2022/01/06 05:53:45;;;;;;;23.52;4.38;;;;;;;;;;5052797;28;20017;-75
2022/01/06 05:56:12;;;;;;;29.52;5.25;;;;;;;;;;5052750;28;20021;-76
2022/01/06 05:58:42;;;;;;;25.13;5.20;;;;;;;;;;5051500;28;20024;-76
2022/01/06 06:01:09;;;;;;;29.05;5.70;;;;;;;;;;5051426;28;20078;-75
2022/01/06 06:03:36;;;;;;;26.02;5.35;;;;;;;;;;5051001;28;20041;-75
2022/01/06 06:06:04;;;;;;;32.35;5.45;;;;;;;;;;5052570;28;20084;-76
2022/01/06 06:08:31;;;;;;;26.00;4.70;;;;;;;;;;5051226;28;20078;-76
2022/01/06 06:10:58;;;;;;;30.83;5.30;;;;;;;;;;5054239;28;20096;-76
2022/01/06 06:13:25;;;;;;;28.38;5.43;;;;;;;;;;5056536;28;20500;-75
2022/01/06 06:15:52;;;;;;;22.55;4.60;;;;;;;;;;5055236;28;20057;-75
2022/01/06 06:18:20;;;;;;;26.15;5.40;;;;;;;;;;5055041;28;20497;-76
2022/01/06 06:20:47;;;;;;;22.30;4.32;;;;;;;;;;5056381;28;20422;-75
2022/01/06 06:23:14;;;;;;;22.92;4.63;;;;;;;;;;5056301;28;20060;-75
2022/01/06 06:25:41;;;;;;;24.55;5.40;;;;;;;;;;5056101;28;20033;-75
2022/01/06 06:28:08;;;;;;;22.85;4.10;;;;;;;;;;5054887;28;20025;-76
2022/01/06 06:30:35;;;;;;;25.50;4.50;;;;;;;;;;5056155;28;20050;-75
2022/01/06 06:33:03;;;;;;;18.60;4.07;;;;;;;;;;5056117;28;20021;-75
2022/01/06 06:35:30;;;;;;;18.27;3.60;;;;;;;;;;5055948;28;20024;-76
2022/01/06 06:37:58;;;;;;;17.88;3.90;;;;;;;;;;5055922;28;20477;-76
2022/01/06 06:40:25;;;;;;;21.13;4.45;;;;;;;;;;5054458;28;20029;-75
2022/01/06 06:42:56;;;;;;;19.90;4.32;;;;;;;;;;5054705;28;20074;-75
2022/01/06 06:45:23;;;;;;;20.23;4.55;;;;;;;;;;5056096;28;20367;-75
2022/01/06 06:47:53;;;;;;;23.45;4.38;;;;;;;;;;5055869;28;20017;-75
2022/01/06 06:50:21;;;;;;;;;;;;;;;;;;5054754;28;20025;-74
2022/01/06 06:52:48;;;;;;;23.10;4.55;;;;;;;;;;5055656;28;19950;-75
2022/01/06 06:55:16;;;;;;;22.00;4.32;;;;;;;;;;5055609;28;20017;-76
2022/01/06 06:57:43;;;;;;;23.48;4.82;;;;;;;;;;5055471;28;20025;-75
2022/01/06 07:00:10;;;;;;;25.63;4.80;;;;;;;;;;5055454;28;20070;-75
2022/01/06 07:02:38;;;;;;;18.60;4.50;;;;;;;;;;5054108;28;20029;-75
2022/01/06 07:05:05;;;;;;;24.15;5.35;;;;;;;;;;5055305;28;20021;-74
2022/01/06 07:07:32;;;;;;;24.50;4.15;;;;;;;;;;5055324;28;20104;-76
2022/01/06 07:10:00;;;;;;;18.35;4.38;;;;;;;;;;5053924;28;20473;-77
2022/01/06 07:12:27;;;;;;;19.92;4.35;;;;;;;;;;5055286;28;20013;-76
2022/01/06 07:14:54;;;;;;;21.20;3.97;;;;;;;;;;5054027;28;20049;-77
2022/01/06 07:17:24;;;;;;;21.73;4.88;;;;;;;;;;5054108;28;20464;-76
2022/01/06 07:19:51;;;;;;;26.65;4.15;;;;;;;;;;5055381;28;20114;-76
2022/01/06 07:22:18;;;;;;;21.55;3.90;;;;;;;;;;5052849;28;20144;-76
2022/01/06 07:24:45;;;;;;;21.80;4.53;;;;;;;;;;5053877;28;20402;-76
2022/01/06 07:27:12;;;;;;;23.35;4.65;;;;;;;;;;5054960;28;20428;-75
2022/01/06 07:29:39;;;;;;;23.35;4.72;;;;;;;;;;5053761;28;20068;-76
2022/01/06 07:32:07;;;;;;;21.52;4.55;;;;;;;;;;5055045;28;20014;-76
2022/01/06 07:34:34;;;;;;;21.67;4.50;;;;;;;;;;5053692;28;20071;-76
2022/01/06 07:37:01;;;;;;;26.42;4.55;;;;;;;;;;5053589;28;20032;-76
2022/01/06 07:39:28;;;;;;;21.98;4.65;;;;;;;;;;5054841;28;20559;-76
2022/01/06 07:41:55;;;;;;;23.38;4.43;;;;;;;;;;5053318;28;20393;-77
2022/01/06 07:44:23;;;;;;;21.73;4.57;;;;;;;;;;5053511;28;20032;-76
2022/01/06 07:46:50;;;;;;;28.42;4.53;;;;;;;;;;5054699;28;20021;-76
2022/01/06 07:49:17;;;;;;;24.45;4.50;;;;;;;;;;5053357;28;20032;-76
2022/01/06 07:51:44;;;;;;;23.52;4.72;;;;;;;;;;5053389;28;20462;-77
2022/01/06 07:54:12;;;;;;;23.98;4.45;;;;;;;;;;5054695;28;20021;-77
2022/01/06 07:56:39;;;;;;;22.73;5.00;;;;;;;;;;5054579;28;20024;-76
2022/01/06 07:59:09;;;;;;;24.83;5.22;;;;;;;;;;5053189;28;20108;-75
2022/01/06 08:01:36;;;;;;;23.40;4.60;;;;;;;;;;5054382;28;20024;-77
2022/01/06 08:04:03;;;;;;;22.45;6.80;;;;;;;;;;5054039;28;20375;-75
2022/01/06 08:06:30;;;;;;;29.08;6.15;;;;;;;;;;5054121;28;20040;-76
2022/01/06 08:08:57;;;;;;;23.15;5.38;;;;;;;;;;5054259;28;20021;-75
2022/01/06 08:11:25;;;;;;;30.15;5.10;;;;;;;;;;5054373;28;20039;-77
2022/01/06 08:13:52;;;;;;;23.65;5.30;;;;;;;;;;5054416;28;20427;-76
2022/01/06 08:16:19;;;;;;;24.88;4.63;;;;;;;;;;5052996;28;20024;-78
2022/01/06 08:18:46;;;;;;;31.48;5.07;;;;;;;;;;5052854;28;20075;-76
2022/01/06 08:21:13;;;;;;;27.08;4.57;;;;;;;;;;5054168;28;20068;-76
2022/01/06 08:23:40;;;;;;;25.98;6.28;;;;;;;;;;5052636;28;20040;-75
2022/01/06 08:26:08;;;;;;;25.10;4.63;;;;;;;;;;5052822;28;20032;-76
2022/01/06 08:28:35;;;;;;;26.50;4.65;;;;;;;;;;5054119;28;20025;-76
2022/01/06 08:31:03;;;;;;;27.33;5.18;;;;;;;;;;5052893;28;20481;-76
2022/01/06 08:33:30;;;;;;;29.33;4.75;;;;;;;;;;5052279;28;20486;-76
2022/01/06 08:35:57;;;;;;;29.92;5.40;;;;;;;;;;5053946;28;20479;-78
2022/01/06 08:38:24;;;;;;;28.40;4.53;;;;;;;;;;5053786;28;20025;-77
2022/01/06 08:40:51;;;;;;;23.85;4.15;;;;;;;;;;5052604;28;20027;-76
2022/01/06 08:43:20;;;;;;;28.55;4.97;;;;;;;;;;5052253;28;20024;-76
2022/01/06 08:45:47;;;;;;;25.52;4.43;;;;;;;;;;5053576;28;20021;-75
2022/01/06 08:48:14;;;;;;;26.77;5.32;;;;;;;;;;5053703;28;20036;-76
2022/01/06 08:50:41;;;;;;;28.92;5.07;;;;;;;;;;5053662;28;20115;-76
2022/01/06 08:53:08;;;;;;;33.80;5.38;;;;;;;;;;5052374;28;20052;-77
2022/01/06 08:55:35;;;;;;;29.20;4.85;;;;;;;;;;5052409;28;20029;-77
2022/01/06 08:58:02;;;;;;;26.77;4.63;;;;;;;;;;5052351;28;20043;-77
2022/01/06 09:00:30;;;;;;;29.58;5.20;;;;;;;;;;5052282;28;20059;-77
2022/01/06 09:02:58;;;;;;;28.33;4.65;;;;;;;;;;5051761;28;20448;-76
2022/01/06 09:05:25;;;;;;;28.05;5.18;;;;;;;;;;5053242;28;20025;-76
2022/01/06 09:07:53;;;;;;;28.20;4.80;;;;;;;;;;5053257;28;20416;-76
2022/01/06 09:10:23;;;;;;;25.05;4.05;;;;;;;;;;5053243;28;20024;-76
2022/01/06 09:12:51;;;;;;;31.08;5.03;;;;;;;;;;5052027;28;20071;-77
2022/01/06 09:15:18;;;;;;;27.02;4.68;;;;;;;;;;5053311;28;20393;-76
2022/01/06 09:17:45;;;;;;;22.30;4.30;;;;;;;;;;5051868;28;20101;-77
2022/01/06 09:20:13;;;;;;;30.27;5.57;;;;;;;;;;5051909;28;20072;-75
2022/01/06 09:22:41;;;;;;;31.63;5.50;;;;;;;;;;5053243;28;20532;-75
2022/01/06 09:25:09;;;;;;;32.35;6.25;;;;;;;;;;5053454;28;20025;-76
2022/01/06 09:27:36;;;;;;;34.40;5.35;;;;;;;;;;5053027;28;20025;-75
2022/01/06 09:30:04;;;;;;;33.80;5.20;;;;;;;;;;5051670;28;20017;-75
2022/01/06 09:32:31;;;;;;;32.78;5.13;;;;;;;;;;5053049;28;20021;-75
2022/01/06 09:34:58;;;;;;;32.55;5.65;;;;;;;;;;5051694;28;20052;-76
2022/01/06 09:37:26;;;;;;;26.52;5.38;;;;;;;;;;5051696;28;20032;-76
2022/01/06 09:39:53;;;;;;;35.60;6.13;;;;;;;;;;5053009;28;20032;-76
2022/01/06 09:42:21;;;;;;;28.95;4.53;;;;;;;;;;5051730;28;20025;-77
2022/01/06 09:44:49;;;;;;;29.27;5.32;;;;;;;;;;5051674;28;20031;-77
2022/01/06 09:47:16;;;;;;;30.67;5.10;;;;;;;;;;5057101;28;20056;-76
2022/01/06 09:49:44;;;;;;;30.75;4.80;;;;;;;;;;5057051;28;20112;-76
2022/01/06 09:52:12;;;;;;;36.40;6.25;;;;;;;;;;5056865;28;20432;-75
2022/01/06 09:54:41;;;;;;;38.58;5.32;;;;;;;;;;5055618;28;20393;-77
2022/01/06 09:57:09;;;;;;;30.80;5.72;;;;;;;;;;5056850;28;20036;-76
2022/01/06 09:59:36;;;;;;;25.98;4.97;;;;;;;;;;5055630;28;20401;-75
2022/01/06 10:02:03;;;;;;;31.88;5.35;;;;;;;;;;5056924;28;20113;-76
2022/01/06 10:04:30;;;;;;;26.33;5.70;;;;;;;;;;5056502;28;20123;-78
2022/01/06 10:06:59;;;;;;;31.70;5.40;;;;;;;;;;5055433;28;20067;-76
2022/01/06 10:09:26;;;;;;;26.30;4.82;;;;;;;;;;5055472;28;20025;-76
2022/01/06 10:11:59;;;;;;;22.95;4.25;;;;;;;;;;5055322;28;20509;-75
2022/01/06 10:14:38;;;;;;;26.95;5.75;;;;;;;;;;5055408;28;20020;-76
2022/01/06 10:17:05;;;;;;;23.38;4.15;;;;;;;;;;5055243;28;20440;-76
2022/01/06 10:19:35;;;;;;;24.13;4.70;;;;;;;;;;5055168;28;20389;-76
2022/01/06 10:22:03;;;;;;;19.45;4.75;;;;;;;;;;5055121;28;20029;-76
2022/01/06 10:24:30;;;;;;;28.17;5.00;;;;;;;;;;5055102;28;20091;-76
2022/01/06 10:27:02;;;;;;;29.17;5.22;;;;;;;;;;5055061;28;20033;-75
2022/01/06 10:29:34;;;;;;;24.98;4.38;;;;;;;;;;5056356;28;20020;-78
2022/01/06 10:32:04;;;;;;;21.80;4.30;;;;;;;;;;5056281;28;20055;-77
2022/01/06 10:34:32;;;;;;;28.83;4.80;;;;;;;;;;5054956;28;20025;-76
2022/01/06 10:36:59;;;;;;;26.90;5.38;;;;;;;;;;5056250;28;20054;-76
2022/01/06 10:39:29;;;;;;;27.17;4.70;;;;;;;;;;5054738;28;20037;-76
2022/01/06 10:42:04;;;;;;;25.88;4.75;;;;;;;;;;5056027;28;20170;-77
2022/01/06 10:44:31;;;;;;;26.50;4.90;;;;;;;;;;5054764;28;20504;-76
2022/01/06 10:46:59;;;;;;;31.75;4.90;;;;;;;;;;5055872;28;20017;-76
2022/01/06 10:49:26;;;;;;;31.23;4.97;;;;;;;;;;5055797;28;20040;-76
2022/01/06 10:51:53;;;;;;;32.05;4.80;;;;;;;;;;5055833;28;20042;-77
2022/01/06 10:54:22;;;;;;;26.08;4.40;;;;;;;;;;5055932;28;20021;-76
2022/01/06 10:56:59;;;;;;;26.50;4.60;;;;;;;;;;5055691;28;20485;-77
2022/01/06 10:59:29;;;;;;;27.58;6.13;;;;;;;;;;5055552;28;20021;-76
2022/01/06 11:01:56;;;;;;;29.07;4.93;;;;;;;;;;5054214;28;20094;-76
2022/01/06 11:04:25;;;;;;;30.25;5.03;;;;;;;;;;5055166;28;20052;-76
2022/01/06 11:06:53;;;;;;;31.35;5.05;;;;;;;;;;5054090;28;20041;-76
2022/01/06 11:09:20;;;;;;;29.77;4.97;;;;;;;;;;5054130;28;20016;-77
2022/01/06 11:14:28;;;;;;;23.88;4.78;;;;;;;;;;5055709;28;20473;-77
2022/01/06 11:16:55;;;;;;;28.10;5.65;;;;;;;;;;5055213;28;20025;-78
2022/01/06 11:19:23;;;;;;;27.10;4.78;;;;;;;;;;5055276;28;20025;-76
2022/01/06 11:21:51;;;;;;;29.35;4.35;;;;;;;;;;5055203;28;20056;-76
2022/01/06 11:24:23;;;;;;;29.02;4.75;;;;;;;;;;5054078;28;20029;-76
2022/01/06 11:27:02;;;;;;;26.38;4.88;;;;;;;;;;5053557;28;20024;-78
2022/01/06 11:29:34;;;;;;;28.88;5.07;;;;;;;;;;5055397;28;20539;-77
2022/01/06 11:32:05;;;;;;;30.88;5.80;;;;;;;;;;5053822;28;20064;-77
2022/01/06 11:34:39;;;;;;;30.02;5.13;;;;;;;;;;5053770;28;20051;-78
2022/01/06 11:37:10;;;;;;;33.90;6.35;;;;;;;;;;5053751;28;20032;-77
2022/01/06 11:39:38;;;;;;;30.20;5.13;;;;;;;;;;5053602;28;20115;-77
2022/01/06 11:42:13;;;;;;;27.05;4.55;;;;;;;;;;5055002;28;20105;-78
2022/01/06 11:44:50;;;;;;;31.20;5.32;;;;;;;;;;5053503;28;20032;-77
2022/01/06 11:47:28;;;;;;;26.95;4.75;;;;;;;;;;5053358;28;20440;-77
2022/01/06 11:50:06;;;;;;;28.75;4.68;;;;;;;;;;5053424;28;20021;-77
2022/01/06 11:52:33;;;;;;;31.17;4.75;;;;;;;;;;5053565;28;20021;-77
2022/01/06 11:55:00;;;;;;;29.40;5.40;;;;;;;;;;5054795;28;20021;-78
2022/01/06 11:57:29;;;;;;;22.27;4.20;;;;;;;;;;5054560;28;20025;-77
2022/01/06 11:59:56;;;;;;;28.55;5.20;;;;;;;;;;5053294;28;20032;-78
2022/01/06 12:02:24;;;;;;;31.58;5.53;;;;;;;;;;5053270;28;20074;-77
2022/01/06 12:04:58;;;;;;;32.50;5.80;;;;;;;;;;5053026;28;20086;-77
2022/01/06 12:07:26;;;;;;;33.85;5.75;;;;;;;;;;5052937;28;20029;-75
2022/01/06 12:10:03;;;;;;;29.10;5.10;;;;;;;;;;5052604;28;20025;-76
2022/01/06 12:12:34;;;;;;;32.53;5.38;;;;;;;;;;5054358;28;20017;-77
2022/01/06 12:15:07;;;;;;;32.35;5.05;;;;;;;;;;5052935;28;20112;-76
2022/01/06 12:17:34;;;;;;;42.75;6.50;;;;;;;;;;5054186;28;20083;-76
2022/01/06 12:20:03;;;;;;;32.03;5.40;;;;;;;;;;5054220;28;20052;-77
2022/01/06 12:22:30;;;;;;;31.60;5.53;;;;;;;;;;5054095;28;20029;-75
2022/01/06 12:25:07;;;;;;;32.38;5.25;;;;;;;;;;5052870;28;20041;-75
2022/01/06 12:27:44;;;;;;;32.67;5.15;;;;;;;;;;5053939;28;20029;-77
2022/01/06 12:30:12;;;;;;;27.45;5.47;;;;;;;;;;5054067;28;20071;-77
2022/01/06 12:32:39;;;;;;;31.05;5.35;;;;;;;;;;5053912;28;20025;-76
2022/01/06 12:35:06;;;;;;;26.95;5.93;;;;;;;;;;5053763;28;20021;-76
2022/01/06 12:37:33;;;;;;;28.85;4.85;;;;;;;;;;5053753;28;20473;-77
2022/01/06 12:40:01;;;;;;;31.17;5.10;;;;;;;;;;5052767;28;20025;-76
2022/01/06 12:42:28;;;;;;;30.70;6.75;;;;;;;;;;5052475;28;20033;-76
2022/01/06 12:44:55;;;;;;;27.08;4.72;;;;;;;;;;5053698;28;20021;-76
2022/01/06 12:47:22;;;;;;;28.05;5.07;;;;;;;;;;5053691;28;20105;-76
2022/01/06 12:49:58;;;;;;;29.70;5.07;;;;;;;;;;5053518;28;20040;-77
2022/01/06 12:52:25;;;;;;;32.67;4.93;;;;;;;;;;5053650;28;20092;-76
2022/01/06 12:54:53;;;;;;;27.38;5.22;;;;;;;;;;5053467;28;20028;-77
2022/01/06 12:57:20;;;;;;;28.77;5.20;;;;;;;;;;5053488;28;20065;-76
2022/01/06 12:59:52;;;;;;;26.60;5.60;;;;;;;;;;5053472;28;20044;-76
2022/01/06 13:02:19;;;;;;;29.83;5.65;;;;;;;;;;5053506;28;20028;-76
2022/01/06 13:04:47;;;;;;;26.50;5.20;;;;;;;;;;5051909;28;20497;-77
2022/01/06 13:07:15;;;;;;;29.23;5.40;;;;;;;;;;5053261;28;20033;-76
2022/01/06 13:09:42;;;;;;;34.55;5.85;;;;;;;;;;5053270;28;20032;-77
2022/01/06 13:12:11;;;;;;;26.13;4.63;;;;;;;;;;5053282;28;20013;-76
2022/01/06 13:14:47;;;;;;;29.48;5.55;;;;;;;;;;5053230;28;20021;-77
2022/01/06 13:17:16;;;;;;;33.85;5.65;;;;;;;;;;5053475;28;20080;-78
2022/01/06 13:20:02;;;;;;;31.92;5.50;;;;;;;;;;5051406;28;20028;-77
2022/01/06 13:23:41;;;;;;;28.70;5.68;;;;;;;;;;5053614;28;20025;-76
2022/01/06 13:25:32;;;;;;;31.80;5.15;;;;;;;;;;5056091;28;20068;-77
2022/01/06 13:28:06;;;;;;;29.10;5.43;;;;;;;;;;5053017;28;20021;-77
2022/01/06 13:30:35;;;;;;;32.28;5.28;;;;;;;;;;5053214;28;20029;-77
2022/01/06 13:33:04;;;;;;;33.10;5.03;;;;;;;;;;5053028;28;20504;-77
2022/01/06 13:35:31;;;;;;;31.88;5.03;;;;;;;;;;5053157;28;20053;-78
2022/01/06 13:37:58;;;;;;;28.05;4.60;;;;;;;;;;5051829;28;20473;-77
2022/01/06 13:40:25;;;;;;;28.73;4.70;;;;;;;;;;5051729;28;20049;-77
2022/01/06 13:42:54;;;;;;;28.35;4.72;;;;;;;;;;5051654;28;20069;-77
2022/01/06 13:45:31;;;;;;;33.42;5.32;;;;;;;;;;5052927;28;20025;-78
2022/01/06 13:48:02;;;;;;;29.05;4.65;;;;;;;;;;5051660;28;20061;-77
2022/01/06 13:53:23;;;;;;;32.60;5.05;;;;;;;;;;5053025;28;20032;-77
2022/01/06 13:56:08;;;;;;;34.22;5.90;;;;;;;;;;5052855;28;20025;-77
2022/01/06 13:58:36;;;;;;;26.95;4.90;;;;;;;;;;5052858;28;20025;-76
2022/01/06 14:01:04;;;;;;;33.47;5.43;;;;;;;;;;5052703;28;20017;-76
2022/01/06 14:03:35;;;;;;;32.00;5.57;;;;;;;;;;5052390;28;20064;-75
2022/01/06 14:06:03;;;;;;;32.92;5.85;;;;;;;;;;5051222;28;20067;-78
2022/01/06 14:08:31;;;;;;;26.05;4.75;;;;;;;;;;5052835;28;20449;-75
2022/01/06 14:10:58;;;;;;;28.65;5.05;;;;;;;;;;5051343;28;20504;-78
2022/01/06 14:13:25;;;;;;;29.08;5.53;;;;;;;;;;5051410;28;20112;-77
2022/01/06 14:15:53;;;;;;;30.70;5.25;;;;;;;;;;5051280;28;20390;-77
2022/01/06 14:18:20;;;;;;;28.90;5.05;;;;;;;;;;5052568;28;20486;-76
2022/01/06 14:20:47;;;;;;;33.90;5.75;;;;;;;;;;5052344;28;20088;-78
2022/01/06 14:23:14;;;;;;;30.13;5.50;;;;;;;;;;5052553;28;20029;-77
2022/01/06 14:25:42;;;;;;;33.05;5.40;;;;;;;;;;5052430;28;20053;-78
2022/01/06 14:28:10;;;;;;;33.70;5.32;;;;;;;;;;5052420;28;20014;-77
2022/01/06 14:30:37;;;;;;;29.73;5.50;;;;;;;;;;5051140;28;20028;-77
2022/01/06 14:33:05;;;;;;;33.53;5.90;;;;;;;;;;5056028;28;20475;-76
2022/01/06 14:35:33;;;;;;;31.48;5.68;;;;;;;;;;5054904;28;20025;-78
2022/01/06 14:38:00;;;;;;;30.98;5.68;;;;;;;;;;5056223;28;20100;-76
2022/01/06 14:40:27;;;;;;;30.85;5.43;;;;;;;;;;5054836;28;20111;-77
2022/01/06 14:42:56;;;;;;;35.03;6.00;;;;;;;;;;5056099;28;20021;-78
2022/01/06 14:45:23;;;;;;;32.00;5.03;;;;;;;;;;5054602;28;20021;-77
2022/01/06 14:47:50;;;;;;;39.85;6.40;;;;;;;;;;5055909;28;20028;-77